createdAt,value
2022-11-25T00:02:09.180Z,95.8
2022-11-25T00:07:13.503Z,95.9
2022-11-25T00:12:17.941Z,96.4
2022-11-25T00:17:21.492Z,96.6
2022-11-25T00:22:26.085Z,96.5
2022-11-25T00:27:30.562Z,96.4
2022-11-25T00:32:34.137Z,96.7
2022-11-25T00:37:38.683Z,96.8
2022-11-25T00:42:43.198Z,97.3
2022-11-25T00:47:46.747Z,97.4
2022-11-25T00:52:51.333Z,97.6
2022-11-25T00:57:55.856Z,97.4
2022-11-25T01:02:59.381Z,97.8
2022-11-25T01:08:03.944Z,97.6
2022-11-25T01:13:08.447Z,97.4
2022-11-25T01:18:12.958Z,97.5
2022-11-25T01:23:16.535Z,97.6
2022-11-25T01:28:21.057Z,97.5
2022-11-25T01:33:25.601Z,97.1
2022-11-25T01:38:29.156Z,96.8
2022-11-25T01:43:32.686Z,96.8
2022-11-25T01:48:37.239Z,96.7
2022-11-25T01:53:41.785Z,96.7
2022-11-25T01:58:46.310Z,96.8
2022-11-25T02:03:49.890Z,97.2
2022-11-25T02:08:54.411Z,97.2
2022-11-25T02:13:58.924Z,97.5
2022-11-25T02:19:02.451Z,97.7
2022-11-25T02:24:07.046Z,97.8
2022-11-25T02:29:11.533Z,97.6
2022-11-25T02:34:15.107Z,97.7
2022-11-25T02:39:19.632Z,97.7
2022-11-25T02:44:24.153Z,97.6
2022-11-25T02:49:27.685Z,97.8
2022-11-25T02:54:32.299Z,97.7
2022-11-25T02:59:36.796Z,97.6
2022-11-25T03:04:41.312Z,97.5
2022-11-25T03:09:44.909Z,96.8
2022-11-25T03:14:49.382Z,96.4
2022-11-25T03:19:53.934Z,96.2
2022-11-25T03:24:57.500Z,96.5
2022-11-25T03:30:01.997Z,96.3
2022-11-25T03:35:06.557Z,96.8
2022-11-25T03:40:11.218Z,96.7
2022-11-25T03:45:15.759Z,97.1
2022-11-25T03:50:20.266Z,97.2
2022-11-25T03:55:23.866Z,97
2022-11-25T04:00:28.389Z,96.8
2022-11-25T04:05:32.880Z,96.8
2022-11-25T04:10:37.478Z,96.8
2022-11-25T04:15:40.971Z,96.8
2022-11-25T04:20:45.522Z,96.5
2022-11-25T04:25:50.079Z,95.8
2022-11-25T04:30:53.688Z,95.8
2022-11-25T04:35:58.167Z,96.2
2022-11-25T04:41:02.684Z,96.3
2022-11-25T04:46:14.141Z,96.7
2022-11-25T04:51:10.769Z,96.8
2022-11-25T04:56:15.309Z,97.2
2022-11-25T05:01:20.010Z,97.6
2022-11-25T05:06:24.486Z,98.4
2022-11-25T05:11:29.060Z,98.9
2022-11-25T05:16:33.725Z,99.4
2022-11-25T05:21:37.110Z,99.9
2022-11-25T05:26:41.707Z,100
2022-11-25T05:31:46.195Z,100
2022-11-25T05:36:49.740Z,100
2022-11-25T05:41:54.299Z,100
2022-11-25T05:46:58.776Z,100
2022-11-25T05:52:02.327Z,100
2022-11-25T05:57:06.910Z,100
2022-11-25T06:02:10.580Z,100
2022-11-25T06:07:15.056Z,100
2022-11-25T06:12:19.522Z,100
2022-11-25T06:17:23.058Z,100
2022-11-25T06:22:27.602Z,100
2022-11-25T06:27:56.865Z,100
2022-11-25T06:32:37.553Z,100
2022-11-25T06:37:40.209Z,100
2022-11-25T06:42:44.771Z,100
2022-11-25T06:47:48.298Z,100
2022-11-25T06:52:52.864Z,100
2022-11-25T06:58:13.910Z,100
2022-11-25T07:03:01.960Z,100
2022-11-25T07:08:05.479Z,100
2022-11-25T07:13:10.024Z,100
2022-11-25T07:18:14.521Z,100
2022-11-25T07:23:19.196Z,100
2022-11-25T07:28:23.730Z,100
2022-11-25T07:33:28.306Z,100
2022-11-25T07:38:31.846Z,100
2022-11-25T07:43:36.355Z,100
2022-11-25T07:48:40.858Z,100
2022-11-25T07:53:44.431Z,100
2022-11-25T07:58:48.961Z,100
2022-11-25T08:03:53.483Z,100
2022-11-25T08:08:58.001Z,100
2022-11-25T08:14:01.568Z,100
2022-11-25T08:19:06.071Z,100
2022-11-25T08:24:10.606Z,100
2022-11-25T08:29:14.209Z,100
2022-11-25T08:34:18.760Z,100
2022-11-25T08:44:26.797Z,100
2022-11-25T08:49:34.951Z,99
2022-11-25T08:54:35.875Z,96.9
2022-11-25T08:59:40.664Z,95.8
2022-11-25T09:04:43.923Z,96.3
2022-11-25T09:09:48.488Z,97
2022-11-25T09:14:53.061Z,97.2
2022-11-25T09:19:56.722Z,96.2
2022-11-25T09:25:01.078Z,94.9
2022-11-25T09:30:05.668Z,93.4
2022-11-25T09:35:09.157Z,93
2022-11-25T09:40:13.723Z,91.1
2022-11-25T09:45:18.284Z,90.5
2022-11-25T09:50:21.814Z,89.2
2022-11-25T09:55:26.345Z,88.2
2022-11-25T10:00:30.885Z,85.2
2022-11-25T10:05:35.382Z,88.5
2022-11-25T10:10:38.937Z,87.5
2022-11-25T10:15:42.557Z,86.8
2022-11-25T10:20:47.060Z,86
2022-11-25T10:25:51.563Z,87.5
2022-11-25T10:30:55.272Z,87.6
2022-11-25T10:35:59.674Z,87.6
2022-11-25T10:41:04.207Z,86.6
2022-11-25T10:46:07.834Z,87.8
2022-11-25T10:51:12.307Z,86.3
2022-11-25T10:56:16.852Z,87.7
2022-11-25T11:01:21.450Z,85.3
2022-11-25T11:06:24.891Z,85.1
2022-11-25T11:11:29.444Z,85.2
2022-11-25T11:16:34.111Z,84.2
2022-11-25T11:21:37.524Z,84.4
2022-11-25T11:26:42.073Z,88.4
2022-11-25T11:31:46.659Z,85.8
2022-11-25T11:36:50.141Z,85.3
2022-11-25T11:41:54.675Z,85.1
2022-11-25T11:46:59.505Z,83.2
2022-11-25T11:52:03.768Z,82.2
2022-11-25T11:57:07.303Z,82.4
2022-11-25T12:02:11.903Z,79.6
2022-11-25T12:07:16.375Z,82.7
2022-11-25T12:12:19.898Z,83.8
2022-11-25T12:17:24.451Z,83
2022-11-25T12:22:29.002Z,83.7
2022-11-25T12:27:32.578Z,84.4
2022-11-25T12:32:37.095Z,84.3
2022-11-25T12:37:41.599Z,83.2
2022-11-25T12:42:45.157Z,83.3
2022-11-25T12:47:49.699Z,82.7
2022-11-25T12:52:54.184Z,83.7
2022-11-25T12:57:58.767Z,83.8
2022-11-25T13:03:02.326Z,83.1
2022-11-25T13:08:06.835Z,84
2022-11-25T13:13:17.730Z,83.4
2022-11-25T13:18:14.995Z,83
2022-11-25T13:23:19.491Z,82.9
2022-11-25T13:28:23.950Z,82
2022-11-25T13:33:27.576Z,78
2022-11-25T13:38:32.076Z,78.2
2022-11-25T13:43:36.569Z,78.6
2022-11-25T13:48:40.184Z,76.8
2022-11-25T13:53:44.661Z,78.4
2022-11-25T13:58:49.224Z,80.3
2022-11-25T14:03:53.781Z,80.8
2022-11-25T14:08:57.421Z,80.4
2022-11-25T14:14:01.814Z,81.1
2022-11-25T14:24:09.903Z,81.8
2022-11-25T14:29:13.439Z,82.2
2022-11-25T14:34:18.012Z,83
2022-11-25T14:39:22.555Z,83.5
2022-11-25T14:44:26.158Z,83.2
2022-11-25T14:49:48.827Z,82.6
2022-11-25T14:54:35.596Z,83
2022-11-25T14:59:44.992Z,84
2022-11-25T15:04:43.268Z,83.7
2022-11-25T15:09:47.735Z,84.5
2022-11-25T15:14:52.347Z,84.6
2022-11-25T15:19:55.891Z,84.7
2022-11-25T15:25:00.368Z,85.3
2022-11-25T15:30:04.926Z,85.7
2022-11-25T15:35:08.478Z,86.1
2022-11-25T15:40:12.981Z,86.1
2022-11-25T15:45:17.568Z,86.4
2022-11-25T15:50:22.226Z,86.2
2022-11-25T15:55:26.736Z,86.4
2022-11-25T16:00:31.248Z,86.5
2022-11-25T16:05:35.838Z,86.7
2022-11-25T16:10:39.352Z,86.8
2022-11-25T16:15:43.908Z,86.7
2022-11-25T16:20:48.421Z,87.2
2022-11-25T16:25:51.984Z,87.4
2022-11-25T16:30:59.194Z,86.6
2022-11-25T16:36:03.201Z,86.8
2022-11-25T16:41:04.575Z,87
2022-11-25T16:46:09.205Z,87.4
2022-11-25T16:51:13.705Z,87.3
2022-11-25T16:56:17.174Z,87.5
2022-11-25T17:01:21.778Z,87.7
2022-11-25T17:06:26.326Z,87.4
2022-11-25T17:11:30.800Z,87.6
2022-11-25T17:16:34.418Z,87.9
2022-11-25T17:21:38.996Z,88.1
2022-11-25T17:26:43.438Z,87.9
2022-11-25T17:31:47.034Z,88
2022-11-25T17:36:51.514Z,88.4
2022-11-25T17:41:56.024Z,89.1
2022-11-25T17:46:59.577Z,88.8
2022-11-25T17:52:04.167Z,88.7
2022-11-25T17:57:08.650Z,88.7
2022-11-25T18:02:12.282Z,88.7
2022-11-25T18:07:16.862Z,88.6
2022-11-25T18:12:21.460Z,89.2
2022-11-25T18:17:25.821Z,89.2
2022-11-25T18:22:29.376Z,89.7
2022-11-25T18:27:33.906Z,89.3
2022-11-25T18:32:38.436Z,89.5
2022-11-25T18:37:42.006Z,89.4
2022-11-25T18:42:45.531Z,89.5
2022-11-25T18:47:50.055Z,90.1
2022-11-25T18:52:54.630Z,90.7
2022-11-25T18:57:59.117Z,91.4
2022-11-25T19:03:02.781Z,91.5
2022-11-25T19:08:07.228Z,91.3
2022-11-25T19:13:11.743Z,91.3
2022-11-25T19:18:15.273Z,91.2
2022-11-25T19:23:19.875Z,91.2
2022-11-25T19:28:24.394Z,91.5
2022-11-25T19:33:27.926Z,91.5
2022-11-25T19:38:32.459Z,91.8
2022-11-25T19:43:36.994Z,92
2022-11-25T19:48:40.529Z,92
2022-11-25T19:53:45.111Z,92.4
2022-11-25T19:58:49.605Z,92.6
2022-11-25T20:03:54.141Z,92.9
2022-11-25T20:09:05.517Z,93.5
2022-11-25T20:14:03.325Z,93.4
2022-11-25T20:19:07.876Z,93.7
2022-11-25T20:24:11.432Z,93.4
2022-11-25T20:29:15.954Z,93.7
2022-11-25T20:34:20.454Z,93.7
2022-11-25T20:39:24.037Z,93.5
2022-11-25T20:44:28.604Z,94
2022-11-25T20:49:33.085Z,94.6
2022-11-25T20:54:38.185Z,94.6
2022-11-25T20:59:42.273Z,94.5
2022-11-25T21:04:46.853Z,94.6
2022-11-25T21:09:51.358Z,94.7
2022-11-25T21:14:54.878Z,94.5
2022-11-25T21:19:59.415Z,94.4
2022-11-25T21:25:04.015Z,94
2022-11-25T21:30:07.510Z,93.9
2022-11-25T21:35:12.070Z,94.4
2022-11-25T21:40:16.586Z,94.7
2022-11-25T21:45:20.132Z,94.9
2022-11-25T21:50:24.677Z,95
2022-11-25T21:55:29.272Z,94.9
2022-11-25T22:00:32.820Z,95
2022-11-25T22:05:37.311Z,95.6
2022-11-25T22:10:41.827Z,95.3
2022-11-25T22:15:46.367Z,95.6
2022-11-25T22:20:53.455Z,95.5
2022-11-25T22:25:54.467Z,95.6
2022-11-25T22:30:58.997Z,96.1
2022-11-25T22:36:02.526Z,96.3
2022-11-25T22:41:07.077Z,96.6
2022-11-25T22:46:11.707Z,96.6
2022-11-25T22:51:15.155Z,96.7
2022-11-25T22:56:19.690Z,97.2
2022-11-25T23:01:23.292Z,97.7
2022-11-25T23:06:27.766Z,97.8
2022-11-25T23:11:37.078Z,97.5
2022-11-25T23:16:35.922Z,97.8
2022-11-25T23:21:40.385Z,98.4
2022-11-25T23:26:44.987Z,98.4
2022-11-25T23:31:48.531Z,98.7
2022-11-25T23:36:53.009Z,98.6
2022-11-25T23:41:57.560Z,98.6
2022-11-25T23:47:01.067Z,98.2
2022-11-25T23:52:08.029Z,98.6
2022-11-25T23:57:10.192Z,98.5
